Time,TemperatureF,DewpointF,PressureIn,WindDirection,WindDirectionDegrees,WindSpeedMPH,WindSpeedGustMPH,Humidity,HourlyPrecipIn,Conditions,Clouds,dailyrainin,SoftwareType,DateUTC
2013-10-04 00:31:00,62.1,60.3,29.51,South,180,0.0,0.0,94,0.00,CLR,SCT,0.00,WeatherDisplay:10.37,2013-10-04 04:31:00,
2013-10-04 00:32:00,62.1,60.3,29.51,South,180,0.0,0.0,94,0.00,CLR,SCT,0.00,WeatherDisplay:10.37,2013-10-04 04:32:00,
2013-10-04 00:34:00,61.9,60.1,29.51,South,180,0.0,0.0,94,0.00,CLR,SCT,0.00,WeatherDisplay:10.37,2013-10-04 04:34:00,
2013-10-04 00:35:00,61.9,60.1,29.51,South,180,1.2,0.0,94,0.00,CLR,SCT,0.00,WeatherDisplay:10.37,2013-10-04 04:35:00,
2013-10-04 00:38:00,61.9,60.1,29.51,South,180,1.2,0.0,94,0.00,CLR,SCT,0.00,WeatherDisplay:10.37,2013-10-04 04:38:00,
2013-10-04 00:42:00,61.9,60.1,29.51,SE,135,0.0,0.0,94,0.00,CLR,SCT,0.00,WeatherDisplay:10.37,2013-10-04 04:42:00,
2013-10-04 00:43:00,61.9,60.1,29.51,SE,135,0.0,0.0,94,0.00,CLR,SCT,0.00,WeatherDisplay:10.37,2013-10-04 04:43:00,
2013-10-04 00:45:00,61.7,60.0,29.51,SE,135,0.0,0.0,94,0.00,CLR,SCT,0.00,WeatherDisplay:10.37,2013-10-04 04:45:00,
2013-10-04 00:46:00,61.7,60.0,29.51,SE,135,0.0,0.0,94,0.00,CLR,SCT,0.00,WeatherDisplay:10.37,2013-10-04 04:46:00,
2013-10-04 00:50:00,61.5,59.8,29.51,SE,135,0.0,0.0,94,0.00,CLR,SCT,0.00,WeatherDisplay:10.37,2013-10-04 04:50:00,
2013-10-04 00:52:00,61.5,59.8,29.51,SE,135,0.0,0.0,94,0.00,CLR,SCT,0.00,WeatherDisplay:10.37,2013-10-04 04:52:00,
2013-10-04 00:56:00,61.3,59.6,29.51,SE,135,0.0,0.0,94,0.00,CLR,SCT,0.00,WeatherDisplay:10.37,2013-10-04 04:56:00,
2013-10-04 00:59:00,61.3,59.6,29.51,SE,135,0.0,0.0,94,0.00,CLR,SCT,0.00,WeatherDisplay:10.37,2013-10-04 04:59:00,
2013-10-04 01:00:00,61.3,59.6,29.51,SE,135,0.0,0.0,94,0.00,CLR,SCT,0.00,WeatherDisplay:10.37,2013-10-04 05:00:00,
2013-10-04 01:02:00,61.3,59.6,29.51,SE,135,0.0,0.0,94,0.00,CLR,SCT,0.00,WeatherDisplay:10.37,2013-10-04 05:02:00,
2013-10-04 01:03:00,61.3,59.6,29.51,SE,135,0.0,0.0,94,0.00,CLR,SCT,0.00,WeatherDisplay:10.37,2013-10-04 05:03:00,
2013-10-04 01:05:00,61.2,59.4,29.51,North,0,0.0,0.0,94,0.00,CLR,SCT,0.00,WeatherDisplay:10.37,2013-10-04 05:05:00,
2013-10-04 01:07:00,61.3,59.6,29.51,North,0,1.2,0.0,94,0.00,CLR,SCT,0.00,WeatherDisplay:10.37,2013-10-04 05:07:00,
2013-10-04 01:08:00,61.3,59.9,29.51,North,0,1.2,0.0,95,0.00,CLR,SCT,0.00,WeatherDisplay:10.37,2013-10-04 05:08:00,
2013-10-04 01:10:00,61.3,59.9,29.50,North,0,0.0,0.0,95,0.00,CLR,SCT,0.00,WeatherDisplay:10.37,2013-10-04 05:10:00,
2013-10-04 01:15:00,61.3,59.9,29.51,North,0,0.0,0.0,95,0.00,CLR,SCT,0.00,WeatherDisplay:10.37,2013-10-04 05:15:00,
2013-10-04 01:17:00,61.3,59.9,29.51,North,0,0.0,0.0,95,0.00,CLR,SCT,0.00,WeatherDisplay:10.37,2013-10-04 05:17:00,
2013-10-04 01:18:00,61.3,59.9,29.51,North,0,0.0,0.0,95,0.00,CLR,SCT,0.00,WeatherDisplay:10.37,2013-10-04 05:18:00,
2013-10-04 01:24:00,61.2,59.7,29.51,North,0,0.0,0.0,95,0.00,CLR,SCT,0.00,WeatherDisplay:10.37,2013-10-04 05:24:00,
2013-10-04 01:31:00,61.2,59.7,29.51,North,0,0.0,0.0,95,0.00,CLR,SCT,0.00,WeatherDisplay:10.37,2013-10-04 05:31:00,
2013-10-04 01:36:00,61.0,59.5,29.51,South,180,0.0,0.0,95,0.00,CLR,SCT,0.00,WeatherDisplay:10.37,2013-10-04 05:36:00,
2013-10-04 01:41:00,60.8,59.4,29.51,South,180,0.0,0.0,95,0.00,CLR,SCT,0.00,WeatherDisplay:10.37,2013-10-04 05:41:00,
2013-10-04 01:46:00,60.6,59.5,29.51,South,180,0.0,0.0,96,0.00,CLR,SCT,0.00,WeatherDisplay:10.37,2013-10-04 05:46:00,
2013-10-04 01:51:00,60.6,59.5,29.51,South,180,0.0,0.0,96,0.00,CLR,SCT,0.00,WeatherDisplay:10.37,2013-10-04 05:51:00,
2013-10-04 01:56:00,60.4,59.3,29.51,South,180,0.0,0.0,96,0.00,CLR,SCT,0.00,WeatherDisplay:10.37,2013-10-04 05:56:00,
2013-10-04 02:01:00,60.4,59.3,29.51,South,180,0.0,0.0,96,0.00,CLR,SCT,0.00,WeatherDisplay:10.37,2013-10-04 06:01:00,
2013-10-04 02:06:00,60.3,59.1,29.51,South,180,0.0,0.0,96,0.00,CLR,SCT,0.00,WeatherDisplay:10.37,2013-10-04 06:06:00,
2013-10-04 02:11:00,60.3,59.1,29.51,South,180,0.0,0.0,96,0.00,CLR,SCT,0.00,WeatherDisplay:10.37,2013-10-04 06:11:00,
2013-10-04 02:16:00,60.1,58.9,29.51,South,180,0.0,0.0,96,0.00,CLR,SCT,0.00,WeatherDisplay:10.37,2013-10-04 06:16:00,
2013-10-04 02:21:00,60.1,58.9,29.51,South,180,0.0,0.0,96,0.00,CLR,SCT,0.00,WeatherDisplay:10.37,2013-10-04 06:21:00,
2013-10-04 02:26:00,60.1,58.9,29.51,South,180,0.0,0.0,96,0.00,CLR,SCT,0.00,WeatherDisplay:10.37,2013-10-04 06:26:00,
2013-10-04 02:31:00,60.1,58.9,29.51,South,180,0.0,0.0,96,0.00,CLR,SCT,0.00,WeatherDisplay:10.37,2013-10-04 06:31:00,
2013-10-04 02:36:00,60.1,58.9,29.51,South,180,0.0,0.0,96,0.00,CLR,SCT,0.00,WeatherDisplay:10.37,2013-10-04 06:36:00,
2013-10-04 02:41:00,59.9,58.8,29.51,South,180,0.0,0.0,96,0.00,CLR,SCT,0.00,WeatherDisplay:10.37,2013-10-04 06:41:00,
2013-10-04 02:46:00,59.7,58.6,29.51,South,180,0.0,0.0,96,0.00,CLR,SCT,0.00,WeatherDisplay:10.37,2013-10-04 06:46:00,
2013-10-04 02:51:00,59.7,58.6,29.51,South,180,1.2,0.0,96,0.00,CLR,SCT,0.00,WeatherDisplay:10.37,2013-10-04 06:51:00,
2013-10-04 02:56:00,59.7,58.6,29.50,South,180,1.2,0.0,96,0.00,CLR,SCT,0.00,WeatherDisplay:10.37,2013-10-04 06:56:00,
2013-10-04 03:01:00,59.7,58.6,29.50,South,180,0.0,0.0,96,0.00,CLR,SCT,0.00,WeatherDisplay:10.37,2013-10-04 07:01:00,
2013-10-04 03:06:00,59.5,58.4,29.50,South,180,0.0,0.0,96,0.00,CLR,SCT,0.00,WeatherDisplay:10.37,2013-10-04 07:06:00,
2013-10-04 03:11:00,59.5,58.4,29.51,South,180,0.0,0.0,96,0.00,CLR,SCT,0.00,WeatherDisplay:10.37,2013-10-04 07:11:00,
2013-10-04 03:16:00,59.4,58.2,29.51,South,180,0.0,0.0,96,0.00,CLR,SCT,0.00,WeatherDisplay:10.37,2013-10-04 07:16:00,
2013-10-04 03:21:00,59.4,58.2,29.50,South,180,0.0,0.0,96,0.00,CLR,SCT,0.00,WeatherDisplay:10.37,2013-10-04 07:21:00,
2013-10-04 03:26:00,59.2,58.0,29.51,South,180,0.0,0.0,96,0.00,CLR,SCT,0.00,WeatherDisplay:10.37,2013-10-04 07:26:00,
2013-10-04 03:32:00,59.2,58.0,29.51,South,180,0.0,0.0,96,0.00,CLR,SCT,0.00,WeatherDisplay:10.37,2013-10-04 07:32:00,
2013-10-04 03:37:00,59.2,58.0,29.51,South,180,0.0,0.0,96,0.00,CLR,SCT,0.00,WeatherDisplay:10.37,2013-10-04 07:37:00,
2013-10-04 03:42:00,59.2,58.0,29.51,South,180,0.0,0.0,96,0.00,CLR,SCT,0.00,WeatherDisplay:10.37,2013-10-04 07:42:00,
2013-10-04 03:47:00,59.0,57.9,29.51,South,180,0.0,0.0,96,0.00,CLR,SCT,0.00,WeatherDisplay:10.37,2013-10-04 07:47:00,
2013-10-04 03:52:00,59.0,57.9,29.51,South,180,0.0,0.0,96,0.00,CLR,SCT,0.00,WeatherDisplay:10.37,2013-10-04 07:52:00,
2013-10-04 03:57:00,59.0,57.9,29.51,South,180,0.0,0.0,96,0.00,CLR,SCT,0.00,WeatherDisplay:10.37,2013-10-04 07:57:00,
2013-10-04 04:02:00,58.8,58.0,29.51,South,180,0.0,0.0,97,0.00,CLR,SCT,0.00,WeatherDisplay:10.37,2013-10-04 08:02:00,
2013-10-04 04:07:00,58.8,58.0,29.51,South,180,0.0,0.0,97,0.00,CLR,SCT,0.00,WeatherDisplay:10.37,2013-10-04 08:07:00,
2013-10-04 04:12:00,58.6,57.8,29.51,South,180,0.0,0.0,97,0.00,CLR,SCT,0.00,WeatherDisplay:10.37,2013-10-04 08:12:00,
2013-10-04 04:17:00,58.6,57.8,29.51,South,180,0.0,0.0,97,0.00,CLR,SCT,0.00,WeatherDisplay:10.37,2013-10-04 08:17:00,
2013-10-04 04:22:00,58.6,57.8,29.51,South,180,0.0,0.0,97,0.00,CLR,SCT,0.00,WeatherDisplay:10.37,2013-10-04 08:22:00,
2013-10-04 04:27:00,59.0,58.2,29.51,NW,315,0.0,0.0,97,0.00,CLR,SCT,0.00,WeatherDisplay:10.37,2013-10-04 08:27:00,
2013-10-04 04:32:00,59.0,58.2,29.51,SE,135,0.0,0.0,97,0.00,CLR,SCT,0.00,WeatherDisplay:10.37,2013-10-04 08:32:00,
2013-10-04 04:37:00,58.6,57.8,29.51,SE,135,0.0,0.0,97,0.00,CLR,SCT,0.00,WeatherDisplay:10.37,2013-10-04 08:37:00,
2013-10-04 04:42:00,58.5,57.6,29.51,SE,135,0.0,0.0,97,0.00,CLR,SCT,0.00,WeatherDisplay:10.37,2013-10-04 08:42:00,
2013-10-04 04:47:00,58.3,57.4,29.51,SE,135,0.0,0.0,97,0.00,CLR,SCT,0.00,WeatherDisplay:10.37,2013-10-04 08:47:00,
2013-10-04 04:52:00,58.5,57.6,29.51,SE,135,0.0,0.0,97,0.00,CLR,SCT,0.00,WeatherDisplay:10.37,2013-10-04 08:52:00,
2013-10-04 04:57:00,58.3,57.4,29.51,SE,135,0.0,0.0,97,0.00,CLR,SCT,0.00,WeatherDisplay:10.37,2013-10-04 08:57:00,
2013-10-04 05:02:00,58.1,57.3,29.51,SE,135,0.0,0.0,97,0.00,CLR,SCT,0.00,WeatherDisplay:10.37,2013-10-04 09:02:00,
2013-10-04 05:07:00,58.1,57.3,29.51,SE,135,0.0,0.0,97,0.00,CLR,SCT,0.00,WeatherDisplay:10.37,2013-10-04 09:07:00,
2013-10-04 05:12:00,57.9,57.1,29.51,NW,315,0.0,0.0,97,0.00,CLR,SCT,0.00,WeatherDisplay:10.37,2013-10-04 09:12:00,
2013-10-04 05:17:00,58.1,57.3,29.51,NW,315,0.0,0.0,97,0.00,CLR,SCT,0.00,WeatherDisplay:10.37,2013-10-04 09:17:00,
2013-10-04 05:22:00,57.9,57.1,29.51,NW,315,0.0,0.0,97,0.00,CLR,SCT,0.00,WeatherDisplay:10.37,2013-10-04 09:22:00,
2013-10-04 05:27:00,57.9,57.1,29.51,NW,315,0.0,0.0,97,0.00,CLR,SCT,0.00,WeatherDisplay:10.37,2013-10-04 09:27:00,
2013-10-04 05:32:00,57.9,57.1,29.51,NW,315,0.0,0.0,97,0.00,CLR,SCT,0.00,WeatherDisplay:10.37,2013-10-04 09:32:00,
2013-10-04 05:37:00,57.9,57.1,29.51,NW,315,0.0,0.0,97,0.00,CLR,SCT,0.00,WeatherDisplay:10.37,2013-10-04 09:37:00,
2013-10-04 05:42:00,57.9,57.1,29.51,NW,315,0.0,0.0,97,0.00,CLR,SCT,0.00,WeatherDisplay:10.37,2013-10-04 09:42:00,
2013-10-04 05:47:00,57.7,56.9,29.52,SE,135,0.0,0.0,97,0.00,CLR,SCT,0.00,WeatherDisplay:10.37,2013-10-04 09:47:00,
2013-10-04 05:52:00,57.7,56.9,29.51,SE,135,0.0,0.0,97,0.00,CLR,SCT,0.00,WeatherDisplay:10.37,2013-10-04 09:52:00,
2013-10-04 05:57:00,57.6,56.7,29.52,SE,135,0.0,0.0,97,0.00,CLR,SCT,0.00,WeatherDisplay:10.37,2013-10-04 09:57:00,
2013-10-04 06:02:00,57.4,56.5,29.52,SE,135,0.0,0.0,97,0.00,CLR,SCT,0.00,WeatherDisplay:10.37,2013-10-04 10:02:00,
2013-10-04 06:07:00,57.4,56.5,29.52,SE,135,0.0,0.0,97,0.00,CLR,SCT,0.00,WeatherDisplay:10.37,2013-10-04 10:07:00,
2013-10-04 06:12:00,57.4,56.5,29.52,SE,135,1.2,0.0,97,0.00,CLR,SCT,0.00,WeatherDisplay:10.37,2013-10-04 10:12:00,
2013-10-04 06:17:00,57.2,56.4,29.52,SE,135,0.0,0.0,97,0.00,CLR,SCT,0.00,WeatherDisplay:10.37,2013-10-04 10:17:00,
2013-10-04 06:22:00,57.2,56.4,29.52,SE,135,0.0,0.0,97,0.00,CLR,SCT,0.00,WeatherDisplay:10.37,2013-10-04 10:22:00,
2013-10-04 06:27:00,57.2,56.4,29.52,SE,135,0.0,0.0,97,0.00,CLR,SCT,0.00,WeatherDisplay:10.37,2013-10-04 10:27:00,
2013-10-04 06:32:00,57.0,56.5,29.52,SE,135,1.2,0.0,98,0.00,CLR,SCT,0.00,WeatherDisplay:10.37,2013-10-04 10:32:00,
2013-10-04 06:37:00,57.0,56.5,29.52,SE,135,1.2,0.0,98,0.00,CLR,SCT,0.00,WeatherDisplay:10.37,2013-10-04 10:37:00,
2013-10-04 06:42:00,57.0,56.5,29.52,SE,135,0.0,0.0,98,0.00,CLR,SCT,0.00,WeatherDisplay:10.37,2013-10-04 10:42:00,
2013-10-04 06:47:00,57.0,56.5,29.52,SE,135,0.0,0.0,98,0.00,CLR,SCT,0.00,WeatherDisplay:10.37,2013-10-04 10:47:00,
2013-10-04 06:52:00,57.0,56.5,29.52,SE,135,0.0,0.0,98,0.00,CLR,SCT,0.00,WeatherDisplay:10.37,2013-10-04 10:52:00,
2013-10-04 06:57:00,56.8,56.3,29.52,SE,135,0.0,0.0,98,0.00,CLR,SCT,0.00,WeatherDisplay:10.37,2013-10-04 10:57:00,
2013-10-04 07:02:00,56.8,56.3,29.52,SE,135,0.0,0.0,98,0.00,CLR,SCT,0.00,WeatherDisplay:10.37,2013-10-04 11:02:00,
2013-10-04 07:07:00,56.8,56.3,29.52,SE,135,0.0,0.0,98,0.00,CLR,SCT,0.00,WeatherDisplay:10.37,2013-10-04 11:07:00,
2013-10-04 07:12:00,56.7,56.1,29.52,SE,135,0.0,0.0,98,0.00,CLR,SCT,0.00,WeatherDisplay:10.37,2013-10-04 11:12:00,
2013-10-04 07:17:00,56.7,56.1,29.52,SE,135,0.0,0.0,98,0.00,CLR,SCT,0.00,WeatherDisplay:10.37,2013-10-04 11:17:00,
2013-10-04 07:22:00,56.5,55.9,29.53,SE,135,0.0,0.0,98,0.00,CLR,SCT,0.00,WeatherDisplay:10.37,2013-10-04 11:22:00,
2013-10-04 07:27:00,56.3,55.7,29.53,SE,135,0.0,0.0,98,0.00,CLR,SCT,0.00,WeatherDisplay:10.37,2013-10-04 11:27:00,
2013-10-04 07:32:00,56.5,55.9,29.53,SE,135,0.0,0.0,98,0.00,CLR,SCT,0.00,WeatherDisplay:10.37,2013-10-04 11:32:00,
2013-10-04 07:37:00,56.5,55.9,29.53,South,180,1.2,0.0,98,0.00,CLR,SCT,0.00,WeatherDisplay:10.37,2013-10-04 11:37:00,
2013-10-04 07:42:00,56.5,55.9,29.53,South,180,0.0,0.0,98,0.00,CLR,SCT,0.00,WeatherDisplay:10.37,2013-10-04 11:42:00,
2013-10-04 07:47:00,56.5,55.9,29.53,South,180,0.0,0.0,98,0.00,CLR,SCT,0.00,WeatherDisplay:10.37,2013-10-04 11:47:00,
2013-10-04 07:52:00,56.5,56.2,29.53,South,180,0.0,0.0,99,0.00,CLR,SCT,0.00,WeatherDisplay:10.37,2013-10-04 11:52:00,
2013-10-04 07:57:00,56.7,56.4,29.54,South,180,0.0,0.0,99,0.00,CLR,SCT,0.00,WeatherDisplay:10.37,2013-10-04 11:57:00,
2013-10-04 08:02:00,56.8,56.6,29.54,South,180,0.0,0.0,99,0.00,CLR,SCT,0.00,WeatherDisplay:10.37,2013-10-04 12:02:00,
2013-10-04 08:07:00,57.4,56.8,29.55,South,180,0.0,0.0,98,0.00,CLR,SCT,0.00,WeatherDisplay:10.37,2013-10-04 12:07:00,
2013-10-04 08:12:00,57.7,57.2,29.55,South,180,1.2,0.0,98,0.00,CLR,SCT,0.00,WeatherDisplay:10.37,2013-10-04 12:12:00,
2013-10-04 08:17:00,58.1,57.5,29.55,South,180,1.2,0.0,98,0.00,CLR,SCT,0.00,WeatherDisplay:10.37,2013-10-04 12:17:00,
2013-10-04 08:22:00,58.5,57.9,29.54,SE,135,1.2,0.0,98,0.00,CLR,SCT,0.00,WeatherDisplay:10.37,2013-10-04 12:22:00,
2013-10-04 08:28:00,59.0,58.2,29.55,South,180,1.2,0.0,97,0.00,CLR,SCT,0.00,WeatherDisplay:10.37,2013-10-04 12:28:00,
2013-10-04 08:33:00,59.2,58.3,29.55,South,180,0.0,0.0,97,0.00,CLR,SCT,0.00,WeatherDisplay:10.37,2013-10-04 12:33:00,
2013-10-04 08:38:00,60.3,59.7,29.55,SE,135,0.0,0.0,98,0.00,CLR,SCT,0.00,WeatherDisplay:10.37,2013-10-04 12:38:00,
2013-10-04 08:43:00,63.0,61.8,29.55,SE,135,0.0,0.0,96,0.00,CLR,SCT,0.00,WeatherDisplay:10.37,2013-10-04 12:43:00,
2013-10-04 08:48:00,65.8,65.0,29.55,SW,225,0.0,0.0,97,0.00,CLR,SCT,0.00,WeatherDisplay:10.37,2013-10-04 12:48:00,
2013-10-04 08:53:00,67.6,66.5,29.55,SE,135,0.0,0.0,96,0.00,CLR,SCT,0.00,WeatherDisplay:10.37,2013-10-04 12:53:00,
2013-10-04 08:58:00,68.5,66.4,29.55,SE,135,0.0,0.0,93,0.00,CLR,SCT,0.00,WeatherDisplay:10.37,2013-10-04 12:58:00,
2013-10-04 09:03:00,69.4,65.1,29.55,East,90,0.0,0.0,86,0.00,CLR,SCT,0.00,WeatherDisplay:10.37,2013-10-04 13:03:00,
2013-10-04 09:08:00,70.7,64.9,29.55,South,180,0.0,0.0,82,0.00,CLR,SCT,0.00,WeatherDisplay:10.37,2013-10-04 13:08:00,
2013-10-04 09:13:00,72.0,64.7,29.55,South,180,0.0,0.0,78,0.00,CLR,SCT,0.00,WeatherDisplay:10.37,2013-10-04 13:13:00,
2013-10-04 09:18:00,73.4,65.0,29.55,South,180,0.0,0.0,75,0.00,CLR,SCT,0.00,WeatherDisplay:10.37,2013-10-04 13:18:00,
2013-10-04 09:23:00,73.9,65.1,29.55,South,180,0.0,0.0,74,0.00,CLR,SCT,0.00,WeatherDisplay:10.37,2013-10-04 13:23:00,
2013-10-04 09:28:00,74.5,64.5,29.55,South,180,0.0,0.0,71,0.00,CLR,SCT,0.00,WeatherDisplay:10.37,2013-10-04 13:28:00,
2013-10-04 09:33:00,73.9,63.9,29.55,SW,225,0.0,0.0,71,0.00,CLR,SCT,0.00,WeatherDisplay:10.37,2013-10-04 13:33:00,
2013-10-04 09:38:00,74.8,65.2,29.55,NW,315,0.0,0.0,72,0.00,CLR,SCT,0.00,WeatherDisplay:10.37,2013-10-04 13:38:00,
2013-10-04 09:43:00,74.7,64.6,29.56,NW,315,0.0,0.0,71,0.00,CLR,SCT,0.00,WeatherDisplay:10.37,2013-10-04 13:43:00,
2013-10-04 09:48:00,75.9,65.4,29.56,SW,225,0.0,0.0,70,0.00,CLR,SCT,0.00,WeatherDisplay:10.37,2013-10-04 13:48:00,
2013-10-04 09:53:00,75.4,64.1,29.55,NW,315,0.0,0.0,68,0.00,CLR,SCT,0.00,WeatherDisplay:10.37,2013-10-04 13:53:00,
2013-10-04 09:58:00,75.9,64.6,29.56,South,180,0.0,0.0,68,0.00,CLR,SCT,0.00,WeatherDisplay:10.37,2013-10-04 13:58:00,
2013-10-04 10:03:00,77.0,65.2,29.55,North,0,0.0,0.0,67,0.00,CLR,SCT,0.00,WeatherDisplay:10.37,2013-10-04 14:03:00,
2013-10-04 10:08:00,77.5,65.3,29.56,SW,225,0.0,0.0,66,0.00,CLR,SCT,0.00,WeatherDisplay:10.37,2013-10-04 14:08:00,
2013-10-04 10:13:00,78.8,65.1,29.56,West,270,0.0,0.0,63,0.00,CLR,SCT,0.00,WeatherDisplay:10.37,2013-10-04 14:13:00,
2013-10-04 10:18:00,79.2,65.0,29.55,South,180,0.0,0.0,62,0.00,CLR,SCT,0.00,WeatherDisplay:10.37,2013-10-04 14:18:00,
2013-10-04 10:23:00,79.7,65.5,29.55,North,0,0.0,0.0,62,0.00,CLR,SCT,0.00,WeatherDisplay:10.37,2013-10-04 14:23:00,
2013-10-04 10:28:00,78.6,65.0,29.55,NW,315,0.0,0.0,63,0.00,CLR,SCT,0.00,WeatherDisplay:10.37,2013-10-04 14:28:00,
2013-10-04 10:33:00,79.5,65.4,29.56,WNW,292,0.0,0.0,62,0.00,CLR,SCT,0.00,WeatherDisplay:10.37,2013-10-04 14:33:00,
2013-10-04 10:38:00,80.1,66.3,29.55,South,180,0.0,0.0,63,0.00,CLR,SCT,0.00,WeatherDisplay:10.37,2013-10-04 14:38:00,
2013-10-04 10:43:00,80.8,66.1,29.56,SW,225,0.0,0.0,61,0.00,CLR,SCT,0.00,WeatherDisplay:10.37,2013-10-04 14:43:00,
2013-10-04 10:48:00,81.5,65.8,29.56,North,0,0.0,0.0,59,0.00,CLR,SCT,0.00,WeatherDisplay:10.37,2013-10-04 14:48:00,
2013-10-04 10:53:00,81.7,65.5,29.56,SW,225,0.0,0.0,58,0.00,CLR,SCT,0.00,WeatherDisplay:10.37,2013-10-04 14:53:00,
2013-10-04 10:58:00,81.7,66.0,29.55,SW,225,0.0,0.0,59,0.00,CLR,SCT,0.00,WeatherDisplay:10.37,2013-10-04 14:58:00,
2013-10-04 11:03:00,82.0,65.8,29.55,North,0,0.0,0.0,58,0.00,CLR,SCT,0.00,WeatherDisplay:10.37,2013-10-04 15:03:00,
2013-10-04 11:08:00,80.8,64.1,29.55,SE,135,0.0,0.0,57,0.00,CLR,SCT,0.00,WeatherDisplay:10.37,2013-10-04 15:08:00,
2013-10-04 11:13:00,81.5,65.8,29.55,SW,225,0.0,0.0,59,0.00,CLR,SCT,0.00,WeatherDisplay:10.37,2013-10-04 15:13:00,
2013-10-04 11:17:00,82.2,65.5,29.55,SW,225,0.0,0.0,57,0.00,CLR,SCT,0.00,WeatherDisplay:10.37,2013-10-04 15:17:00,
2013-10-04 11:22:00,83.3,66.0,29.56,SE,135,0.0,0.0,56,0.00,CLR,SCT,0.00,WeatherDisplay:10.37,2013-10-04 15:22:00,
2013-10-04 11:27:00,84.4,65.9,29.55,NW,315,0.0,0.0,54,0.00,CLR,SCT,0.00,WeatherDisplay:10.37,2013-10-04 15:27:00,
2013-10-04 11:32:00,84.9,66.4,29.55,East,90,0.0,0.0,54,0.00,CLR,SCT,0.00,WeatherDisplay:10.37,2013-10-04 15:32:00,
2013-10-04 11:37:00,85.3,65.1,29.55,East,90,0.0,0.0,51,0.00,CLR,SCT,0.00,WeatherDisplay:10.37,2013-10-04 15:37:00,
2013-10-04 11:42:00,85.1,66.6,29.55,SE,135,0.0,0.0,54,0.00,CLR,SCT,0.00,WeatherDisplay:10.37,2013-10-04 15:42:00,
2013-10-04 11:47:00,85.1,66.6,29.55,NW,315,0.0,0.0,54,0.00,CLR,SCT,0.00,WeatherDisplay:10.37,2013-10-04 15:47:00,
2013-10-04 11:52:00,85.5,65.3,29.55,South,180,0.0,0.0,51,0.00,CLR,SCT,0.00,WeatherDisplay:10.37,2013-10-04 15:52:00,
2013-10-04 11:57:00,86.2,65.9,29.55,NE,45,0.0,0.0,51,0.00,CLR,SCT,0.00,WeatherDisplay:10.37,2013-10-04 15:57:00,
2013-10-04 12:02:00,87.1,65.6,29.55,South,180,0.0,0.0,49,0.00,CLR,SCT,0.00,WeatherDisplay:10.37,2013-10-04 16:02:00,
2013-10-04 12:07:00,86.5,64.5,29.55,SE,135,0.0,0.0,48,0.00,CLR,SCT,0.00,WeatherDisplay:10.37,2013-10-04 16:07:00,
2013-10-04 12:12:00,85.1,64.9,29.54,South,180,0.0,0.0,51,0.00,CLR,SCT,0.00,WeatherDisplay:10.37,2013-10-04 16:12:00,
2013-10-04 12:17:00,85.3,65.7,29.54,North,0,0.0,0.0,52,0.00,CLR,SCT,0.00,WeatherDisplay:10.37,2013-10-04 16:17:00,
2013-10-04 12:22:00,85.5,65.8,29.54,South,180,0.0,0.0,52,0.00,CLR,SCT,0.00,WeatherDisplay:10.37,2013-10-04 16:22:00,
2013-10-04 12:27:00,85.3,65.1,29.54,South,180,0.0,0.0,51,0.00,CLR,SCT,0.00,WeatherDisplay:10.37,2013-10-04 16:27:00,
2013-10-04 12:32:00,86.5,66.3,29.54,SE,135,0.0,0.0,51,0.00,CLR,SCT,0.00,WeatherDisplay:10.37,2013-10-04 16:32:00,
2013-10-04 12:37:00,87.1,65.6,29.54,SE,135,0.0,0.0,49,0.00,CLR,SCT,0.00,WeatherDisplay:10.37,2013-10-04 16:37:00,
2013-10-04 12:42:00,86.4,64.4,29.54,South,180,0.0,0.0,48,0.00,CLR,SCT,0.00,WeatherDisplay:10.37,2013-10-04 16:42:00,
2013-10-04 12:47:00,85.6,64.9,29.53,South,180,0.0,0.0,50,0.00,CLR,SCT,0.00,WeatherDisplay:10.37,2013-10-04 16:47:00,
2013-10-04 12:52:00,86.4,64.9,29.54,SW,225,0.0,0.0,49,0.00,CLR,SCT,0.00,WeatherDisplay:10.37,2013-10-04 16:52:00,
2013-10-04 12:57:00,85.8,65.0,29.53,South,180,0.0,0.0,50,0.00,CLR,SCT,0.00,WeatherDisplay:10.37,2013-10-04 16:57:00,
2013-10-04 13:02:00,86.7,64.7,29.53,South,180,0.0,0.0,48,0.00,CLR,SCT,0.00,WeatherDisplay:10.37,2013-10-04 17:02:00,
2013-10-04 13:07:00,87.1,65.0,29.53,SW,225,0.0,0.0,48,0.00,CLR,SCT,0.00,WeatherDisplay:10.37,2013-10-04 17:07:00,
2013-10-04 13:12:00,87.3,64.0,29.53,NW,315,0.0,0.0,46,0.00,CLR,SCT,0.00,WeatherDisplay:10.37,2013-10-04 17:12:00,
2013-10-04 13:18:00,86.0,64.0,29.52,North,0,0.0,0.0,48,0.00,CLR,SCT,0.00,WeatherDisplay:10.37,2013-10-04 17:18:00,
2013-10-04 13:23:00,85.8,65.0,29.52,North,0,0.0,0.0,50,0.00,CLR,SCT,0.00,WeatherDisplay:10.37,2013-10-04 17:23:00,
2013-10-04 13:28:00,85.8,65.6,29.52,NW,315,0.0,0.0,51,0.00,CLR,SCT,0.00,WeatherDisplay:10.37,2013-10-04 17:28:00,
2013-10-04 13:33:00,87.6,66.7,29.52,South,180,0.0,0.0,50,0.00,CLR,SCT,0.00,WeatherDisplay:10.37,2013-10-04 17:33:00,
2013-10-04 13:38:00,88.5,65.1,29.51,North,0,0.0,0.0,46,0.00,CLR,SCT,0.00,WeatherDisplay:10.37,2013-10-04 17:38:00,
2013-10-04 14:03:00,86.9,63.6,29.50,South,180,0.0,0.0,46,0.00,CLR,SCT,0.00,WeatherDisplay:10.37,2013-10-04 18:03:00,
2013-10-04 14:08:00,86.9,63.6,29.50,SE,135,0.0,0.0,46,0.00,CLR,SCT,0.00,WeatherDisplay:10.37,2013-10-04 18:08:00,
2013-10-04 14:13:00,86.9,62.4,29.50,SE,135,0.0,0.0,44,0.00,CLR,SCT,0.00,WeatherDisplay:10.37,2013-10-04 18:13:00,
2013-10-04 14:18:00,87.4,62.8,29.49,South,180,0.0,0.0,44,0.00,CLR,SCT,0.00,WeatherDisplay:10.37,2013-10-04 18:18:00,
2013-10-04 14:23:00,86.9,62.4,29.49,South,180,0.0,0.0,44,0.00,CLR,SCT,0.00,WeatherDisplay:10.37,2013-10-04 18:23:00,
2013-10-04 14:28:00,86.5,62.7,29.49,SE,135,0.0,0.0,45,0.00,CLR,SCT,0.00,WeatherDisplay:10.37,2013-10-04 18:28:00,
2013-10-04 14:33:00,86.5,62.7,29.49,South,180,0.0,0.0,45,0.00,CLR,SCT,0.00,WeatherDisplay:10.37,2013-10-04 18:33:00,
2013-10-04 14:38:00,85.8,62.6,29.49,NE,45,0.0,0.0,46,0.00,CLR,SCT,0.00,WeatherDisplay:10.37,2013-10-04 18:38:00,
2013-10-04 14:43:00,85.1,62.6,29.49,South,180,0.0,0.0,47,0.00,CLR,SCT,0.00,WeatherDisplay:10.37,2013-10-04 18:43:00,
2013-10-04 14:48:00,85.3,63.4,29.49,East,90,0.0,0.0,48,0.00,CLR,SCT,0.00,WeatherDisplay:10.37,2013-10-04 18:48:00,
2013-10-04 14:53:00,85.5,62.9,29.49,SE,135,0.0,0.0,47,0.00,CLR,SCT,0.00,WeatherDisplay:10.37,2013-10-04 18:53:00,
2013-10-04 14:58:00,86.0,62.8,29.49,SW,225,0.0,0.0,46,0.00,CLR,SCT,0.00,WeatherDisplay:10.37,2013-10-04 18:58:00,
2013-10-04 15:03:00,85.8,62.6,29.49,South,180,0.0,0.0,46,0.00,CLR,SCT,0.00,WeatherDisplay:10.37,2013-10-04 19:03:00,
2013-10-04 15:08:00,85.8,62.0,29.49,SE,135,0.0,0.0,45,0.00,CLR,SCT,0.00,WeatherDisplay:10.37,2013-10-04 19:08:00,
2013-10-04 15:13:00,86.0,62.2,29.49,North,0,0.0,0.0,45,0.00,CLR,SCT,0.00,WeatherDisplay:10.37,2013-10-04 19:13:00,
2013-10-04 15:18:00,85.1,62.6,29.49,North,0,1.2,0.0,47,0.00,CLR,SCT,0.00,WeatherDisplay:10.37,2013-10-04 19:18:00,
2013-10-04 15:23:00,84.4,62.5,29.48,North,0,0.0,0.0,48,0.00,CLR,SCT,0.00,WeatherDisplay:10.37,2013-10-04 19:23:00,
2013-10-04 15:28:00,84.6,62.7,29.48,SE,135,0.0,0.0,48,0.00,CLR,SCT,0.00,WeatherDisplay:10.37,2013-10-04 19:28:00,
2013-10-04 15:33:00,84.9,62.4,29.48,SE,135,0.0,0.0,47,0.00,CLR,SCT,0.00,WeatherDisplay:10.37,2013-10-04 19:33:00,
2013-10-04 15:38:00,85.3,62.8,29.48,South,180,0.0,0.0,47,0.00,CLR,SCT,0.00,WeatherDisplay:10.37,2013-10-04 19:38:00,
2013-10-04 15:43:00,85.1,63.2,29.48,North,0,0.0,0.0,48,0.00,CLR,SCT,0.00,WeatherDisplay:10.37,2013-10-04 19:43:00,
2013-10-04 15:48:00,84.9,63.6,29.48,SE,135,0.0,0.0,49,0.00,CLR,SCT,0.00,WeatherDisplay:10.37,2013-10-04 19:48:00,
2013-10-04 15:53:00,84.9,62.4,29.48,North,0,0.0,0.0,47,0.00,CLR,SCT,0.00,WeatherDisplay:10.37,2013-10-04 19:53:00,
2013-10-04 15:58:00,84.7,62.9,29.48,South,180,0.0,0.0,48,0.00,CLR,SCT,0.00,WeatherDisplay:10.37,2013-10-04 19:58:00,
2013-10-04 16:03:00,84.4,62.5,29.48,SE,135,0.0,0.0,48,0.00,CLR,SCT,0.00,WeatherDisplay:10.37,2013-10-04 20:03:00,
2013-10-04 16:08:00,83.8,63.2,29.48,SE,135,0.0,0.0,50,0.00,CLR,SCT,0.00,WeatherDisplay:10.37,2013-10-04 20:08:00,
2013-10-04 16:13:00,83.7,63.6,29.48,South,180,0.0,0.0,51,0.00,CLR,SCT,0.00,WeatherDisplay:10.37,2013-10-04 20:13:00,
2013-10-04 16:18:00,83.5,64.0,29.48,South,180,0.0,0.0,52,0.00,CLR,SCT,0.00,WeatherDisplay:10.37,2013-10-04 20:18:00,
2013-10-04 16:23:00,82.6,64.3,29.48,South,180,0.0,0.0,54,0.00,CLR,SCT,0.00,WeatherDisplay:10.37,2013-10-04 20:23:00,
2013-10-04 16:28:00,82.2,64.4,29.47,East,90,0.0,0.0,55,0.00,CLR,SCT,0.00,WeatherDisplay:10.37,2013-10-04 20:28:00,
2013-10-04 16:33:00,82.0,64.3,29.48,SE,135,0.0,0.0,55,0.00,CLR,SCT,0.00,WeatherDisplay:10.37,2013-10-04 20:33:00,
2013-10-04 16:38:00,81.9,63.1,29.48,SE,135,0.0,0.0,53,0.00,CLR,SCT,0.00,WeatherDisplay:10.37,2013-10-04 20:38:00,
2013-10-04 16:43:00,81.5,63.8,29.48,South,180,0.0,0.0,55,0.00,CLR,SCT,0.00,WeatherDisplay:10.37,2013-10-04 20:43:00,
2013-10-04 16:48:00,81.3,63.1,29.48,SE,135,0.0,0.0,54,0.00,CLR,SCT,0.00,WeatherDisplay:10.37,2013-10-04 20:48:00,
2013-10-04 16:53:00,81.0,64.8,29.48,South,180,0.0,0.0,58,0.00,CLR,SCT,0.00,WeatherDisplay:10.37,2013-10-04 20:53:00,
2013-10-04 16:58:00,80.8,64.6,29.48,East,90,0.0,0.0,58,0.00,CLR,SCT,0.00,WeatherDisplay:10.37,2013-10-04 20:58:00,
2013-10-04 17:03:00,80.8,65.1,29.47,SE,135,1.2,0.0,59,0.00,CLR,SCT,0.00,WeatherDisplay:10.37,2013-10-04 21:03:00,
2013-10-04 17:08:00,81.0,63.8,29.48,NE,45,0.0,0.0,56,0.00,CLR,SCT,0.00,WeatherDisplay:10.37,2013-10-04 21:08:00,
2013-10-04 17:13:00,81.3,64.6,29.48,NE,45,0.0,0.0,57,0.00,CLR,SCT,0.00,WeatherDisplay:10.37,2013-10-04 21:13:00,
2013-10-04 17:18:00,81.3,64.6,29.48,South,180,0.0,0.0,57,0.00,CLR,SCT,0.00,WeatherDisplay:10.37,2013-10-04 21:18:00,
2013-10-04 17:23:00,81.3,65.6,29.48,NW,315,0.0,0.0,59,0.00,CLR,SCT,0.00,WeatherDisplay:10.37,2013-10-04 21:23:00,
2013-10-04 17:29:00,81.3,65.1,29.48,SE,135,0.0,0.0,58,0.00,CLR,SCT,0.00,WeatherDisplay:10.37,2013-10-04 21:29:00,
2013-10-04 17:34:00,81.1,64.0,29.48,SE,135,0.0,0.0,56,0.00,CLR,SCT,0.00,WeatherDisplay:10.37,2013-10-04 21:34:00,
2013-10-04 17:39:00,81.0,63.8,29.48,SE,135,0.0,0.0,56,0.00,CLR,SCT,0.00,WeatherDisplay:10.37,2013-10-04 21:39:00,
2013-10-04 17:44:00,81.0,63.3,29.48,South,180,0.0,0.0,55,0.00,CLR,SCT,0.00,WeatherDisplay:10.37,2013-10-04 21:44:00,
2013-10-04 17:49:00,80.6,62.9,29.49,South,180,0.0,0.0,55,0.00,CLR,SCT,0.00,WeatherDisplay:10.37,2013-10-04 21:49:00,
2013-10-04 17:54:00,80.4,63.8,29.48,East,90,0.0,0.0,57,0.00,CLR,SCT,0.00,WeatherDisplay:10.37,2013-10-04 21:54:00,
2013-10-04 17:59:00,80.1,64.0,29.48,SE,135,0.0,0.0,58,0.00,CLR,SCT,0.00,WeatherDisplay:10.37,2013-10-04 21:59:00,
2013-10-04 18:04:00,79.3,65.2,29.48,East,90,1.2,0.0,62,0.00,CLR,SCT,0.00,WeatherDisplay:10.37,2013-10-04 22:04:00,
2013-10-04 18:09:00,79.2,65.0,29.48,NE,45,0.0,0.0,62,0.00,CLR,SCT,0.00,WeatherDisplay:10.37,2013-10-04 22:09:00,
2013-10-04 18:14:00,78.8,64.7,29.49,NE,45,1.2,0.0,62,0.00,CLR,SCT,0.00,WeatherDisplay:10.37,2013-10-04 22:14:00,
2013-10-04 18:19:00,78.4,64.8,29.48,East,90,0.0,0.0,63,0.00,CLR,SCT,0.00,WeatherDisplay:10.37,2013-10-04 22:19:00,
2013-10-04 18:24:00,78.1,64.9,29.48,South,180,0.0,0.0,64,0.00,CLR,SCT,0.00,WeatherDisplay:10.37,2013-10-04 22:24:00,
2013-10-04 18:29:00,77.7,65.0,29.49,South,180,1.2,0.0,65,0.00,CLR,SCT,0.00,WeatherDisplay:10.37,2013-10-04 22:29:00,
2013-10-04 18:34:00,77.2,65.4,29.49,South,180,1.2,0.0,67,0.00,CLR,SCT,0.00,WeatherDisplay:10.37,2013-10-04 22:34:00,
2013-10-04 18:39:00,76.8,65.5,29.49,West,270,0.0,0.0,68,0.00,CLR,SCT,0.00,WeatherDisplay:10.37,2013-10-04 22:39:00,
2013-10-04 18:44:00,76.5,65.5,29.49,West,270,0.0,0.0,69,0.00,CLR,SCT,0.00,WeatherDisplay:10.37,2013-10-04 22:44:00,
2013-10-04 18:49:00,76.1,65.2,29.49,West,270,0.0,0.0,69,0.00,CLR,SCT,0.00,WeatherDisplay:10.37,2013-10-04 22:49:00,
2013-10-04 18:54:00,75.6,65.5,29.49,South,180,0.0,0.0,71,0.00,CLR,SCT,0.00,WeatherDisplay:10.37,2013-10-04 22:54:00,
2013-10-04 18:59:00,75.0,65.8,29.49,South,180,0.0,0.0,73,0.00,CLR,SCT,0.00,WeatherDisplay:10.37,2013-10-04 22:59:00,
2013-10-04 19:04:00,74.7,65.8,29.49,South,180,0.0,0.0,74,0.00,CLR,SCT,0.00,WeatherDisplay:10.37,2013-10-04 23:04:00,
2013-10-04 19:09:00,74.3,65.9,29.49,South,180,1.2,0.0,75,0.00,CLR,SCT,0.00,WeatherDisplay:10.37,2013-10-04 23:09:00,
2013-10-04 19:14:00,73.8,65.3,29.49,South,180,1.2,0.0,75,0.00,CLR,SCT,0.00,WeatherDisplay:10.37,2013-10-04 23:14:00,
2013-10-04 19:19:00,73.4,65.4,29.49,South,180,0.0,0.0,76,0.00,CLR,SCT,0.00,WeatherDisplay:10.37,2013-10-04 23:19:00,
2013-10-04 19:24:00,72.9,64.8,29.49,South,180,0.0,0.0,76,0.00,CLR,SCT,0.00,WeatherDisplay:10.37,2013-10-04 23:24:00,
2013-10-04 19:29:00,72.5,64.9,29.50,South,180,0.0,0.0,77,0.00,CLR,SCT,0.00,WeatherDisplay:10.37,2013-10-04 23:29:00,
2013-10-04 19:34:00,72.1,64.9,29.50,South,180,0.0,0.0,78,0.00,CLR,SCT,0.00,WeatherDisplay:10.37,2013-10-04 23:34:00,
2013-10-04 19:39:00,71.8,65.3,29.50,East,90,0.0,0.0,80,0.00,CLR,SCT,0.00,WeatherDisplay:10.37,2013-10-04 23:39:00,
2013-10-04 19:44:00,71.4,65.6,29.50,East,90,0.0,0.0,82,0.00,CLR,SCT,0.00,WeatherDisplay:10.37,2013-10-04 23:44:00,
2013-10-04 19:49:00,71.2,65.5,29.50,South,180,1.2,0.0,82,0.00,CLR,SCT,0.00,WeatherDisplay:10.37,2013-10-04 23:49:00,
2013-10-04 19:54:00,71.1,65.6,29.50,South,180,1.2,0.0,83,0.00,CLR,SCT,0.00,WeatherDisplay:10.37,2013-10-04 23:54:00,
2013-10-04 19:59:00,70.9,65.5,29.50,South,180,0.0,0.0,83,0.00,CLR,SCT,0.00,WeatherDisplay:10.37,2013-10-04 23:59:00,
2013-10-04 20:04:00,70.5,65.1,29.50,South,180,1.2,0.0,83,0.00,CLR,SCT,0.00,WeatherDisplay:10.37,2013-10-05 00:04:00,
2013-10-04 20:09:00,70.3,64.9,29.50,South,180,0.0,0.0,83,0.00,CLR,SCT,0.00,WeatherDisplay:10.37,2013-10-05 00:09:00,
2013-10-04 20:14:00,70.2,65.1,29.51,West,270,0.0,0.0,84,0.00,CLR,SCT,0.00,WeatherDisplay:10.37,2013-10-05 00:14:00,
2013-10-04 20:19:00,70.0,64.9,29.51,SW,225,0.0,0.0,84,0.00,CLR,SCT,0.00,WeatherDisplay:10.37,2013-10-05 00:19:00,
2013-10-04 20:24:00,69.8,65.1,29.51,SW,225,0.0,0.0,85,0.00,CLR,SCT,0.00,WeatherDisplay:10.37,2013-10-05 00:24:00,
2013-10-04 20:29:00,69.6,65.2,29.51,SE,135,0.0,0.0,86,0.00,CLR,SCT,0.00,WeatherDisplay:10.37,2013-10-05 00:29:00,
2013-10-04 20:34:00,69.1,64.7,29.51,SE,135,0.0,0.0,86,0.00,CLR,SCT,0.00,WeatherDisplay:10.37,2013-10-05 00:34:00,
2013-10-04 20:39:00,68.9,64.9,29.51,NE,45,0.0,0.0,87,0.00,CLR,SCT,0.00,WeatherDisplay:10.37,2013-10-05 00:39:00,
2013-10-04 20:44:00,68.7,64.7,29.51,NE,45,0.0,0.0,87,0.00,CLR,SCT,0.00,WeatherDisplay:10.37,2013-10-05 00:44:00,
2013-10-04 20:49:00,68.7,64.7,29.51,South,180,0.0,0.0,87,0.00,CLR,SCT,0.00,WeatherDisplay:10.37,2013-10-05 00:49:00,
2013-10-04 20:54:00,68.5,64.8,29.51,South,180,0.0,0.0,88,0.00,CLR,SCT,0.00,WeatherDisplay:10.37,2013-10-05 00:54:00,
2013-10-04 20:59:00,68.4,64.7,29.51,South,180,0.0,0.0,88,0.00,CLR,SCT,0.00,WeatherDisplay:10.37,2013-10-05 00:59:00,
2013-10-04 21:04:00,68.2,64.5,29.51,South,180,0.0,0.0,88,0.00,CLR,SCT,0.00,WeatherDisplay:10.37,2013-10-05 01:04:00,
2013-10-04 21:09:00,68.2,64.8,29.52,SE,135,0.0,0.0,89,0.00,CLR,SCT,0.00,WeatherDisplay:10.37,2013-10-05 01:09:00,
2013-10-04 21:14:00,67.8,64.8,29.52,SE,135,0.0,0.0,90,0.00,CLR,SCT,0.00,WeatherDisplay:10.37,2013-10-05 01:14:00,
2013-10-04 21:19:00,67.6,64.6,29.52,SE,135,0.0,0.0,90,0.00,CLR,SCT,0.00,WeatherDisplay:10.37,2013-10-05 01:19:00,
2013-10-04 21:24:00,67.6,64.6,29.52,SE,135,0.0,0.0,90,0.00,CLR,SCT,0.00,WeatherDisplay:10.37,2013-10-05 01:24:00,
2013-10-04 21:29:00,67.5,64.4,29.52,SE,135,0.0,0.0,90,0.00,CLR,SCT,0.00,WeatherDisplay:10.37,2013-10-05 01:29:00,
2013-10-04 21:34:00,67.5,64.7,29.52,SE,135,0.0,0.0,91,0.00,CLR,SCT,0.00,WeatherDisplay:10.37,2013-10-05 01:34:00,
2013-10-04 21:39:00,67.3,64.6,29.52,NW,315,0.0,0.0,91,0.00,CLR,SCT,0.00,WeatherDisplay:10.37,2013-10-05 01:39:00,
2013-10-04 21:44:00,67.1,64.4,29.53,NW,315,0.0,0.0,91,0.00,CLR,SCT,0.00,WeatherDisplay:10.37,2013-10-05 01:44:00,
2013-10-04 21:49:00,66.9,64.2,29.53,NW,315,0.0,0.0,91,0.00,CLR,SCT,0.00,WeatherDisplay:10.37,2013-10-05 01:49:00,
2013-10-04 21:54:00,66.7,64.0,29.53,South,180,0.0,0.0,91,0.00,CLR,SCT,0.00,WeatherDisplay:10.37,2013-10-05 01:54:00,
2013-10-04 21:59:00,66.6,63.9,29.53,East,90,1.2,0.0,91,0.00,CLR,SCT,0.00,WeatherDisplay:10.37,2013-10-05 01:59:00,
2013-10-04 22:04:00,66.6,63.9,29.53,East,90,1.2,0.0,91,0.00,CLR,SCT,0.00,WeatherDisplay:10.37,2013-10-05 02:04:00,
2013-10-04 22:09:00,66.0,63.6,29.52,East,90,0.0,0.0,92,0.00,CLR,SCT,0.00,WeatherDisplay:10.37,2013-10-05 02:09:00,
2013-10-04 22:14:00,66.0,63.9,29.53,East,90,0.0,0.0,93,0.00,CLR,SCT,0.00,WeatherDisplay:10.37,2013-10-05 02:14:00,
2013-10-04 22:19:00,65.8,63.8,29.53,East,90,0.0,0.0,93,0.00,CLR,SCT,0.00,WeatherDisplay:10.37,2013-10-05 02:19:00,
2013-10-04 22:24:00,65.8,63.8,29.53,East,90,0.0,0.0,93,0.00,CLR,SCT,0.00,WeatherDisplay:10.37,2013-10-05 02:24:00,
2013-10-04 22:29:00,65.7,63.6,29.53,East,90,0.0,0.0,93,0.00,CLR,SCT,0.00,WeatherDisplay:10.37,2013-10-05 02:29:00,
2013-10-04 22:34:00,65.7,63.9,29.53,East,90,1.2,0.0,94,0.00,CLR,SCT,0.00,WeatherDisplay:10.37,2013-10-05 02:34:00,
2013-10-04 22:39:00,65.5,63.7,29.53,East,90,0.0,0.0,94,0.00,CLR,SCT,0.00,WeatherDisplay:10.37,2013-10-05 02:39:00,
2013-10-04 22:44:00,65.3,63.5,29.53,East,90,0.0,0.0,94,0.00,CLR,SCT,0.00,WeatherDisplay:10.37,2013-10-05 02:44:00,
2013-10-04 22:49:00,65.1,63.3,29.53,East,90,0.0,0.0,94,0.00,CLR,SCT,0.00,WeatherDisplay:10.37,2013-10-05 02:49:00,
2013-10-04 22:54:00,64.9,63.2,29.53,East,90,0.0,0.0,94,0.00,CLR,SCT,0.00,WeatherDisplay:10.37,2013-10-05 02:54:00,
2013-10-04 22:59:00,64.9,63.2,29.53,East,90,0.0,0.0,94,0.00,CLR,SCT,0.00,WeatherDisplay:10.37,2013-10-05 02:59:00,
2013-10-04 23:05:00,64.9,63.2,29.53,SE,135,1.2,0.0,94,0.00,CLR,SCT,0.00,WeatherDisplay:10.37,2013-10-05 03:05:00,
2013-10-04 23:10:00,64.6,62.8,29.52,SE,135,0.0,0.0,94,0.00,CLR,SCT,0.00,WeatherDisplay:10.37,2013-10-05 03:10:00,
2013-10-04 23:15:00,64.6,62.8,29.53,SE,135,1.2,0.0,94,0.00,CLR,SCT,0.00,WeatherDisplay:10.37,2013-10-05 03:15:00,
2013-10-04 23:20:00,64.4,62.6,29.52,SE,135,0.0,0.0,94,0.00,CLR,SCT,0.00,WeatherDisplay:10.37,2013-10-05 03:20:00,
2013-10-04 23:25:00,64.4,62.9,29.53,SE,135,0.0,0.0,95,0.00,CLR,SCT,0.00,WeatherDisplay:10.37,2013-10-05 03:25:00,
2013-10-04 23:30:00,64.2,62.2,29.52,SE,135,0.0,0.0,93,0.00,CLR,SCT,0.00,WeatherDisplay:10.37,2013-10-05 03:30:00,
2013-10-04 23:35:00,64.2,62.2,29.52,SW,225,1.2,0.0,93,0.00,CLR,SCT,0.00,WeatherDisplay:10.37,2013-10-05 03:35:00,
2013-10-04 23:40:00,64.2,62.5,29.53,SW,225,1.2,0.0,94,0.00,CLR,SCT,0.00,WeatherDisplay:10.37,2013-10-05 03:40:00,
2013-10-04 23:45:00,64.2,62.5,29.52,SW,225,0.0,0.0,94,0.00,CLR,SCT,0.00,WeatherDisplay:10.37,2013-10-05 03:45:00,
2013-10-04 23:50:00,64.2,62.5,29.52,SW,225,0.0,0.0,94,0.00,CLR,SCT,0.00,WeatherDisplay:10.37,2013-10-05 03:50:00,
2013-10-04 23:55:00,64.0,62.3,29.52,SW,225,0.0,0.0,94,0.00,CLR,SCT,0.00,WeatherDisplay:10.37,2013-10-05 03:55:00,